Terminal Aerodrome Forecast
Issued by NWS Cleveland, OH

Home | Current Version | Previous Version | Graphics & Text | Print | Product List | Glossary Off
Versions: 1 2 3 4 5 6 7 8 9 10 11 12 13

000
FTUS41 KCLE 250500
TAFYNG
TAF
KYNG 250520Z 2506/2606 08005KT P6SM BKN250
     FM251000 09004KT P6SM VCSH BKN100
     FM251500 08006KT P6SM BKN050 OVC100
     FM252100 03008KT P6SM VCSH OVC050
     FM260400 03006KT P6SM SCT050 BKN100=

USA.gov is the U.S. government's official web portal to all federal, state and local government web resources and services.